Time,TemperatureF,DewpointF,PressureIn,WindDirection,WindDirectionDegrees,WindSpeedMPH,WindSpeedGustMPH,Humidity,HourlyPrecipIn,Conditions,Clouds,dailyrainin,SoftwareType,DateUTC
2017-10-18 00:00:00,57.9,50.4,30.16,NE,56,0.0,0.0,76,0.00,,,0.00,meteobridge,2017-10-18 05:00:00,
2017-10-18 00:06:00,57.7,50.2,30.16,NE,56,0.0,0.0,76,0.00,,,0.00,meteobridge,2017-10-18 05:06:00,
2017-10-18 00:11:00,57.4,49.8,30.16,NE,56,0.0,0.0,76,0.00,,,0.00,meteobridge,2017-10-18 05:11:00,
2017-10-18 00:16:00,57.0,49.8,30.16,NE,56,0.0,0.0,77,0.00,,,0.00,meteobridge,2017-10-18 05:16:00,
2017-10-18 00:22:00,56.8,50.0,30.16,NE,56,0.0,0.0,78,0.00,,,0.00,meteobridge,2017-10-18 05:22:00,
2017-10-18 00:27:00,56.5,50.0,30.16,NE,56,0.0,0.0,79,0.00,,,0.00,meteobridge,2017-10-18 05:27:00,
2017-10-18 00:32:00,56.1,50.0,30.16,NE,56,0.0,0.0,80,0.00,,,0.00,meteobridge,2017-10-18 05:32:00,
2017-10-18 00:37:00,55.9,49.5,30.15,NE,56,0.0,0.0,79,0.00,,,0.00,meteobridge,2017-10-18 05:37:00,
2017-10-18 00:42:00,55.8,49.3,30.16,NE,56,0.0,0.0,79,0.00,,,0.00,meteobridge,2017-10-18 05:42:00,
2017-10-18 00:48:00,55.8,49.3,30.15,NE,56,0.0,0.0,79,0.00,,,0.00,meteobridge,2017-10-18 05:48:00,
2017-10-18 00:53:00,55.4,49.3,30.15,NE,56,0.0,0.0,80,0.00,,,0.00,meteobridge,2017-10-18 05:53:00,
2017-10-18 00:58:00,55.0,49.3,30.15,NE,56,0.0,0.0,81,0.00,,,0.00,meteobridge,2017-10-18 05:58:00,
2017-10-18 01:03:00,55.2,50.5,30.15,NE,56,0.0,0.0,84,0.00,,,0.00,meteobridge,2017-10-18 06:03:00,
2017-10-18 01:08:00,55.2,50.5,30.15,NE,56,0.0,0.0,84,0.00,,,0.00,meteobridge,2017-10-18 06:08:00,
2017-10-18 01:13:00,55.2,50.5,30.15,NE,56,0.0,0.0,84,0.00,,,0.00,meteobridge,2017-10-18 06:13:00,
2017-10-18 01:18:00,55.0,50.0,30.15,NE,56,0.0,0.0,83,0.00,,,0.00,meteobridge,2017-10-18 06:18:00,
2017-10-18 01:24:00,54.9,49.8,30.15,NE,56,0.0,0.0,83,0.00,,,0.00,meteobridge,2017-10-18 06:24:00,
2017-10-18 01:29:00,54.7,49.6,30.15,NE,56,0.0,0.0,83,0.00,,,0.00,meteobridge,2017-10-18 06:29:00,
2017-10-18 01:34:00,54.3,49.3,30.14,NE,56,0.0,0.0,83,0.00,,,0.00,meteobridge,2017-10-18 06:34:00,
2017-10-18 01:39:00,54.3,49.3,30.15,NE,56,0.0,0.0,83,0.00,,,0.00,meteobridge,2017-10-18 06:39:00,
2017-10-18 01:50:00,53.8,48.7,30.15,NE,56,0.0,0.0,83,0.00,,,0.00,meteobridge,2017-10-18 06:50:00,
2017-10-18 01:55:00,53.6,48.6,30.15,NE,56,0.0,0.0,83,0.00,,,0.00,meteobridge,2017-10-18 06:55:00,
2017-10-18 02:01:00,53.4,48.4,30.15,NE,56,0.0,0.0,83,0.00,,,0.00,meteobridge,2017-10-18 07:01:00,
2017-10-18 02:06:00,53.4,48.4,30.15,NE,56,0.0,0.0,83,0.00,,,0.00,meteobridge,2017-10-18 07:06:00,
2017-10-18 02:11:00,53.2,48.2,30.15,NE,56,0.0,0.0,83,0.00,,,0.00,meteobridge,2017-10-18 07:11:00,
2017-10-18 02:16:00,52.9,47.8,30.15,NE,56,0.0,0.0,83,0.00,,,0.00,meteobridge,2017-10-18 07:16:00,
2017-10-18 02:22:00,52.7,48.0,30.15,NE,56,0.0,0.0,84,0.00,,,0.00,meteobridge,2017-10-18 07:22:00,
2017-10-18 02:27:00,52.5,47.5,30.15,NE,56,0.0,0.0,83,0.00,,,0.00,meteobridge,2017-10-18 07:27:00,
2017-10-18 02:32:00,52.3,47.3,30.15,NE,56,0.0,0.0,83,0.00,,,0.00,meteobridge,2017-10-18 07:32:00,
2017-10-18 02:38:00,52.2,47.5,30.15,NE,56,0.0,0.0,84,0.00,,,0.00,meteobridge,2017-10-18 07:38:00,
2017-10-18 02:43:00,52.0,47.3,30.15,NE,56,0.0,0.0,84,0.00,,,0.00,meteobridge,2017-10-18 07:43:00,
2017-10-18 02:48:00,52.0,47.3,30.15,NE,56,0.0,0.0,84,0.00,,,0.00,meteobridge,2017-10-18 07:48:00,
2017-10-18 02:54:00,51.8,47.1,30.15,NE,56,0.0,0.0,84,0.00,,,0.00,meteobridge,2017-10-18 07:54:00,
2017-10-18 02:59:00,51.6,46.9,30.15,NE,56,0.0,0.0,84,0.00,,,0.00,meteobridge,2017-10-18 07:59:00,
2017-10-18 03:04:00,51.4,47.5,30.15,NE,56,0.0,0.0,86,0.00,,,0.00,meteobridge,2017-10-18 08:04:00,
2017-10-18 03:09:00,51.4,47.5,30.15,NE,56,0.0,0.0,86,0.00,,,0.00,meteobridge,2017-10-18 08:09:00,
2017-10-18 03:15:00,51.4,47.5,30.14,NE,56,0.0,0.0,86,0.00,,,0.00,meteobridge,2017-10-18 08:15:00,
2017-10-18 03:20:00,51.3,47.5,30.14,NE,56,0.0,0.0,87,0.00,,,0.00,meteobridge,2017-10-18 08:20:00,
2017-10-18 03:25:00,51.1,47.3,30.14,NE,56,0.0,0.0,87,0.00,,,0.00,meteobridge,2017-10-18 08:25:00,
2017-10-18 03:30:00,51.1,47.7,30.14,NE,56,0.0,0.0,88,0.00,,,0.00,meteobridge,2017-10-18 08:30:00,
2017-10-18 03:36:00,51.1,47.7,30.14,NE,56,0.0,0.0,88,0.00,,,0.00,meteobridge,2017-10-18 08:36:00,
2017-10-18 03:41:00,51.1,47.7,30.14,NE,56,0.0,0.0,88,0.00,,,0.00,meteobridge,2017-10-18 08:41:00,
2017-10-18 03:46:00,50.9,47.5,30.14,NE,56,0.0,0.0,88,0.00,,,0.00,meteobridge,2017-10-18 08:46:00,
2017-10-18 03:52:00,50.7,47.3,30.14,NE,56,0.0,0.0,88,0.00,,,0.00,meteobridge,2017-10-18 08:52:00,
2017-10-18 03:57:00,50.5,47.1,30.14,NE,56,0.0,0.0,88,0.00,,,0.00,meteobridge,2017-10-18 08:57:00,
2017-10-18 04:02:00,50.5,47.1,30.14,NE,56,0.0,0.0,88,0.00,,,0.00,meteobridge,2017-10-18 09:02:00,
2017-10-18 04:07:00,50.4,46.9,30.13,NE,56,0.0,0.0,88,0.00,,,0.00,meteobridge,2017-10-18 09:07:00,
2017-10-18 04:12:00,50.2,46.8,30.13,NE,56,0.0,0.0,88,0.00,,,0.00,meteobridge,2017-10-18 09:12:00,
2017-10-18 04:18:00,49.8,46.8,30.13,NE,56,0.0,0.0,89,0.00,,,0.00,meteobridge,2017-10-18 09:18:00,
2017-10-18 04:23:00,49.6,46.6,30.13,NE,56,0.0,0.0,89,0.00,,,0.00,meteobridge,2017-10-18 09:23:00,
2017-10-18 04:28:00,49.6,46.8,30.13,NE,56,0.0,0.0,90,0.00,,,0.00,meteobridge,2017-10-18 09:28:00,
2017-10-18 04:34:00,49.6,46.8,30.13,NE,56,0.0,0.0,90,0.00,,,0.00,meteobridge,2017-10-18 09:34:00,
2017-10-18 04:39:00,49.6,47.1,30.13,NE,56,0.0,0.0,91,0.00,,,0.00,meteobridge,2017-10-18 09:39:00,
2017-10-18 04:44:00,49.6,47.1,30.13,NE,56,0.0,0.0,91,0.00,,,0.00,meteobridge,2017-10-18 09:44:00,
2017-10-18 04:49:00,49.6,46.8,30.13,NE,56,0.0,0.0,90,0.00,,,0.00,meteobridge,2017-10-18 09:49:00,
2017-10-18 04:55:00,49.5,46.6,30.13,NE,56,0.0,0.0,90,0.00,,,0.00,meteobridge,2017-10-18 09:55:00,
2017-10-18 05:00:00,49.5,46.6,30.13,NE,56,0.0,0.0,90,0.00,,,0.00,meteobridge,2017-10-18 10:00:00,
2017-10-18 05:05:00,49.3,46.4,30.13,NE,56,0.0,0.0,90,0.00,,,0.00,meteobridge,2017-10-18 10:05:00,
2017-10-18 05:10:00,49.3,46.8,30.13,NE,56,0.0,0.0,91,0.00,,,0.00,meteobridge,2017-10-18 10:10:00,
2017-10-18 05:15:00,49.1,46.6,30.13,NE,56,0.0,0.0,91,0.00,,,0.00,meteobridge,2017-10-18 10:15:00,
2017-10-18 05:21:00,48.9,46.4,30.13,NE,56,0.0,0.0,91,0.00,,,0.00,meteobridge,2017-10-18 10:21:00,
2017-10-18 05:26:00,48.9,46.4,30.13,NE,56,0.0,0.0,91,0.00,,,0.00,meteobridge,2017-10-18 10:26:00,
2017-10-18 05:31:00,48.7,46.2,30.13,NE,56,0.0,0.0,91,0.00,,,0.00,meteobridge,2017-10-18 10:31:00,
2017-10-18 05:36:00,48.9,46.0,30.13,NE,56,0.0,0.0,90,0.00,,,0.00,meteobridge,2017-10-18 10:36:00,
2017-10-18 05:41:00,48.7,45.9,30.13,NE,56,0.0,0.0,90,0.00,,,0.00,meteobridge,2017-10-18 10:41:00,
2017-10-18 05:46:00,48.7,45.9,30.13,NE,56,0.0,0.0,90,0.00,,,0.00,meteobridge,2017-10-18 10:46:00,
2017-10-18 05:51:00,48.7,45.9,30.13,NE,56,0.0,0.0,90,0.00,,,0.00,meteobridge,2017-10-18 10:51:00,
2017-10-18 05:56:00,48.6,45.7,30.13,NE,56,0.0,0.0,90,0.00,,,0.00,meteobridge,2017-10-18 10:56:00,
2017-10-18 06:02:00,48.6,46.0,30.13,NE,56,0.0,0.0,91,0.00,,,0.00,meteobridge,2017-10-18 11:02:00,
2017-10-18 06:07:00,48.7,46.6,30.13,NE,56,0.0,0.0,92,0.00,,,0.00,meteobridge,2017-10-18 11:07:00,
2017-10-18 06:12:00,48.7,45.9,30.14,NE,56,0.0,0.0,90,0.00,,,0.00,meteobridge,2017-10-18 11:12:00,
2017-10-18 06:17:00,48.6,45.5,30.13,NE,56,0.0,0.0,89,0.00,,,0.00,meteobridge,2017-10-18 11:17:00,
2017-10-18 06:22:00,48.4,45.3,30.13,NE,56,0.0,0.0,89,0.00,,,0.00,meteobridge,2017-10-18 11:22:00,
2017-10-18 06:27:00,48.2,45.3,30.13,NE,56,0.0,0.0,90,0.00,,,0.00,meteobridge,2017-10-18 11:27:00,
2017-10-18 06:32:00,48.0,45.1,30.13,NE,56,0.0,0.0,90,0.00,,,0.00,meteobridge,2017-10-18 11:32:00,
2017-10-18 06:37:00,48.2,45.7,30.14,NE,56,0.0,0.0,91,0.00,,,0.00,meteobridge,2017-10-18 11:37:00,
2017-10-18 06:42:00,48.6,46.6,30.14,South,172,0.0,0.0,93,0.00,,,0.00,meteobridge,2017-10-18 11:42:00,
2017-10-18 06:44:00,48.6,46.6,30.14,South,172,0.0,0.0,93,0.00,,,0.00,meteobridge,2017-10-18 11:44:00,
2017-10-18 06:49:00,48.7,46.8,30.14,South,172,0.0,0.0,93,0.00,,,0.00,meteobridge,2017-10-18 11:49:00,
2017-10-18 06:54:00,49.3,47.7,30.14,SE,140,0.0,0.0,94,0.00,,,0.00,meteobridge,2017-10-18 11:54:00,
2017-10-18 06:59:00,49.6,47.7,30.14,SE,140,0.0,0.0,93,0.00,,,0.00,meteobridge,2017-10-18 11:59:00,
2017-10-18 07:04:00,49.8,47.8,30.14,ESE,117,0.0,0.0,93,0.00,,,0.00,meteobridge,2017-10-18 12:04:00,
2017-10-18 07:09:00,49.8,47.7,30.14,ESE,117,0.0,0.0,92,0.00,,,0.00,meteobridge,2017-10-18 12:09:00,
2017-10-18 07:15:00,50.0,48.0,30.14,SE,142,0.0,0.0,93,0.00,,,0.00,meteobridge,2017-10-18 12:15:00,
2017-10-18 07:20:00,50.0,48.0,30.14,SE,142,0.0,0.0,93,0.00,,,0.00,meteobridge,2017-10-18 12:20:00,
2017-10-18 07:25:00,50.0,47.8,30.14,SE,142,0.0,0.0,92,0.00,,,0.00,meteobridge,2017-10-18 12:25:00,
2017-10-18 07:30:00,49.8,47.7,30.14,SE,142,0.0,0.0,92,0.00,,,0.00,meteobridge,2017-10-18 12:30:00,
2017-10-18 07:34:00,49.6,47.5,30.14,SE,142,0.0,0.0,92,0.00,,,0.00,meteobridge,2017-10-18 12:34:00,
2017-10-18 07:39:00,49.6,47.5,30.14,SE,142,0.0,0.0,92,0.00,,,0.00,meteobridge,2017-10-18 12:39:00,
2017-10-18 07:45:00,49.5,47.3,30.14,SE,142,0.0,0.0,92,0.00,,,0.00,meteobridge,2017-10-18 12:45:00,
2017-10-18 07:50:00,49.3,47.1,30.14,SE,142,0.0,0.0,92,0.00,,,0.00,meteobridge,2017-10-18 12:50:00,
2017-10-18 07:55:00,49.3,47.1,30.14,SE,142,0.0,0.0,92,0.00,,,0.00,meteobridge,2017-10-18 12:55:00,
2017-10-18 08:01:00,49.5,47.5,30.14,SE,142,0.0,0.0,93,0.00,,,0.00,meteobridge,2017-10-18 13:01:00,
2017-10-18 08:06:00,49.6,47.7,30.15,SSE,159,0.0,0.0,93,0.00,,,0.00,meteobridge,2017-10-18 13:06:00,
2017-10-18 08:11:00,49.8,47.8,30.15,SSE,159,0.0,0.0,93,0.00,,,0.00,meteobridge,2017-10-18 13:11:00,
2017-10-18 08:16:00,50.4,48.4,30.15,SSE,159,0.0,0.0,93,0.00,,,0.00,meteobridge,2017-10-18 13:16:00,
2017-10-18 08:21:00,51.3,49.3,30.15,SSE,159,0.0,0.0,93,0.00,,,0.00,meteobridge,2017-10-18 13:21:00,
2017-10-18 08:27:00,52.0,49.6,30.15,SSE,159,0.0,0.0,92,0.00,,,0.00,meteobridge,2017-10-18 13:27:00,
2017-10-18 08:32:00,52.3,49.8,30.15,SSE,159,0.0,0.0,91,0.00,,,0.00,meteobridge,2017-10-18 13:32:00,
2017-10-18 08:37:00,53.1,50.2,30.16,SSE,159,0.9,1.0,90,0.00,,,0.00,meteobridge,2017-10-18 13:37:00,
2017-10-18 08:42:00,53.4,50.2,30.16,SSE,156,0.9,4.0,89,0.00,,,0.00,meteobridge,2017-10-18 13:42:00,
2017-10-18 08:47:00,54.0,50.5,30.16,SSE,156,0.0,0.0,88,0.00,,,0.00,meteobridge,2017-10-18 13:47:00,
2017-10-18 08:52:00,54.3,50.5,30.16,SSE,156,0.0,0.0,87,0.00,,,0.00,meteobridge,2017-10-18 13:52:00,
2017-10-18 08:57:00,54.7,50.5,30.16,SSE,154,0.0,0.0,86,0.00,,,0.00,meteobridge,2017-10-18 13:57:00,
2017-10-18 09:02:00,55.0,50.5,30.16,SSE,154,0.0,0.0,85,0.00,,,0.00,meteobridge,2017-10-18 14:02:00,
2017-10-18 09:07:00,55.6,50.9,30.16,SSE,154,0.0,1.0,84,0.00,,,0.00,meteobridge,2017-10-18 14:07:00,
2017-10-18 09:13:00,55.9,50.9,30.16,SSE,154,0.0,0.0,83,0.00,,,0.00,meteobridge,2017-10-18 14:13:00,
2017-10-18 09:19:00,56.8,51.4,30.16,SSE,154,0.0,0.0,82,0.00,,,0.00,meteobridge,2017-10-18 14:19:00,
2017-10-18 09:24:00,57.7,51.6,30.16,SSE,154,0.0,0.0,80,0.00,,,0.00,meteobridge,2017-10-18 14:24:00,
2017-10-18 09:29:00,58.3,51.4,30.17,East,90,0.0,0.0,78,0.00,,,0.00,meteobridge,2017-10-18 14:29:00,
2017-10-18 09:34:00,58.8,52.3,30.17,East,90,0.0,0.0,79,0.00,,,0.00,meteobridge,2017-10-18 14:34:00,
2017-10-18 09:40:00,59.7,51.8,30.17,SE,134,0.0,0.0,75,0.00,,,0.00,meteobridge,2017-10-18 14:40:00,
2017-10-18 09:45:00,60.4,52.5,30.16,East,93,4.0,4.0,75,0.00,,,0.00,meteobridge,2017-10-18 14:45:00,
2017-10-18 09:50:00,60.8,52.5,30.17,East,80,0.0,0.0,74,0.00,,,0.00,meteobridge,2017-10-18 14:50:00,
2017-10-18 09:55:00,61.3,52.7,30.17,SSE,165,0.0,4.0,73,0.00,,,0.00,meteobridge,2017-10-18 14:55:00,
2017-10-18 10:00:00,62.2,53.1,30.17,East,92,0.0,2.0,72,0.00,,,0.00,meteobridge,2017-10-18 15:00:00,
2017-10-18 10:05:00,62.4,51.8,30.17,NE,49,0.0,0.0,68,0.00,,,0.00,meteobridge,2017-10-18 15:05:00,
2017-10-18 10:10:00,62.2,51.6,30.16,NE,38,0.0,0.0,68,0.00,,,0.00,meteobridge,2017-10-18 15:10:00,
2017-10-18 10:15:00,62.4,52.2,30.16,NNE,32,0.0,0.0,69,0.00,,,0.00,meteobridge,2017-10-18 15:15:00,
2017-10-18 10:20:00,62.6,52.3,30.16,NE,55,0.0,0.0,69,0.00,,,0.00,meteobridge,2017-10-18 15:20:00,
2017-10-18 10:25:00,63.3,53.1,30.16,East,101,0.0,0.0,69,0.00,,,0.00,meteobridge,2017-10-18 15:25:00,
2017-10-18 10:30:00,64.0,53.6,30.16,NNE,29,0.0,0.0,69,0.00,,,0.00,meteobridge,2017-10-18 15:30:00,
2017-10-18 10:36:00,65.1,54.3,30.16,SE,145,0.0,0.0,68,0.00,,,0.00,meteobridge,2017-10-18 15:36:00,
2017-10-18 10:41:00,66.0,54.0,30.16,NNE,24,0.0,0.0,65,0.00,,,0.00,meteobridge,2017-10-18 15:41:00,
2017-10-18 10:46:00,66.4,54.3,30.16,ENE,70,0.0,0.0,65,0.00,,,0.00,meteobridge,2017-10-18 15:46:00,
2017-10-18 10:51:00,66.9,54.3,30.15,NE,34,0.0,0.0,64,0.00,,,0.00,meteobridge,2017-10-18 15:51:00,
2017-10-18 10:56:00,67.5,54.9,30.16,NE,43,0.0,1.0,64,0.00,,,0.00,meteobridge,2017-10-18 15:56:00,